sensor_id;sensor_type;location;lat;lon;timestamp;temperature;humidity
26254;DHT22;53339;51.378;0.094;2023-03-23T00:01:19;11.30;80.60
26254;DHT22;53339;51.378;0.094;2023-03-23T00:03:48;11.20;80.80
26254;DHT22;53339;51.378;0.094;2023-03-23T00:06:20;11.30;80.60
26254;DHT22;53339;51.378;0.094;2023-03-23T00:08:49;11.30;80.70
26254;DHT22;53339;51.378;0.094;2023-03-23T00:11:21;11.30;80.70
26254;DHT22;53339;51.378;0.094;2023-03-23T00:13:50;11.30;80.70
26254;DHT22;53339;51.378;0.094;2023-03-23T00:16:22;11.40;80.60
26254;DHT22;53339;51.378;0.094;2023-03-23T00:19:01;11.40;80.50
26254;DHT22;53339;51.378;0.094;2023-03-23T00:21:32;11.40;80.40
26254;DHT22;53339;51.378;0.094;2023-03-23T00:24:08;11.40;80.40
26254;DHT22;53339;51.378;0.094;2023-03-23T00:26:37;11.40;80.40
26254;DHT22;53339;51.378;0.094;2023-03-23T00:29:19;11.40;80.40
26254;DHT22;53339;51.378;0.094;2023-03-23T00:31:50;11.30;80.50
26254;DHT22;53339;51.378;0.094;2023-03-23T00:34:20;11.30;80.50
26254;DHT22;53339;51.378;0.094;2023-03-23T00:36:49;11.30;80.50
26254;DHT22;53339;51.378;0.094;2023-03-23T00:39:17;11.30;80.40
26254;DHT22;53339;51.378;0.094;2023-03-23T00:41:45;11.30;80.30
26254;DHT22;53339;51.378;0.094;2023-03-23T00:44:13;11.30;80.50
26254;DHT22;53339;51.378;0.094;2023-03-23T00:46:44;11.30;80.30
26254;DHT22;53339;51.378;0.094;2023-03-23T00:49:17;11.30;80.30
26254;DHT22;53339;51.378;0.094;2023-03-23T00:51:45;11.40;80.20
26254;DHT22;53339;51.378;0.094;2023-03-23T00:54:12;11.40;80.40
26254;DHT22;53339;51.378;0.094;2023-03-23T00:56:39;11.40;80.30
26254;DHT22;53339;51.378;0.094;2023-03-23T00:59:06;11.40;80.20
26254;DHT22;53339;51.378;0.094;2023-03-23T01:01:34;11.40;80.10
26254;DHT22;53339;51.378;0.094;2023-03-23T01:04:03;11.40;80.10
26254;DHT22;53339;51.378;0.094;2023-03-23T01:06:32;11.30;80.20
26254;DHT22;53339;51.378;0.094;2023-03-23T01:09:03;11.30;80.30
26254;DHT22;53339;51.378;0.094;2023-03-23T01:11:30;11.20;80.20
26254;DHT22;53339;51.378;0.094;2023-03-23T01:13:58;11.30;80.20
26254;DHT22;53339;51.378;0.094;2023-03-23T01:16:26;11.30;80.40
26254;DHT22;53339;51.378;0.094;2023-03-23T01:18:53;11.30;80.30
26254;DHT22;53339;51.378;0.094;2023-03-23T01:21:21;11.20;80.70
26254;DHT22;53339;51.378;0.094;2023-03-23T01:23:49;11.00;81.40
26254;DHT22;53339;51.378;0.094;2023-03-23T01:26:19;10.70;82.00
26254;DHT22;53339;51.378;0.094;2023-03-23T01:28:46;10.60;82.50
26254;DHT22;53339;51.378;0.094;2023-03-23T01:31:16;10.40;82.80
26254;DHT22;53339;51.378;0.094;2023-03-23T01:33:43;10.30;82.90
26254;DHT22;53339;51.378;0.094;2023-03-23T01:36:16;10.10;82.90
26254;DHT22;53339;51.378;0.094;2023-03-23T01:38:45;10.10;82.90
26254;DHT22;53339;51.378;0.094;2023-03-23T01:41:14;10.00;82.80
26254;DHT22;53339;51.378;0.094;2023-03-23T01:44:05;9.90;82.90
26254;DHT22;53339;51.378;0.094;2023-03-23T01:46:44;9.90;83.00
26254;DHT22;53339;51.378;0.094;2023-03-23T01:49:15;9.90;82.90
26254;DHT22;53339;51.378;0.094;2023-03-23T01:51:48;10.00;82.50
26254;DHT22;53339;51.378;0.094;2023-03-23T01:54:17;10.00;81.90
26254;DHT22;53339;51.378;0.094;2023-03-23T01:56:52;10.00;81.80
26254;DHT22;53339;51.378;0.094;2023-03-23T01:59:22;10.00;81.90
26254;DHT22;53339;51.378;0.094;2023-03-23T02:02:01;10.00;81.90
26254;DHT22;53339;51.378;0.094;2023-03-23T02:04:30;9.90;81.80
26254;DHT22;53339;51.378;0.094;2023-03-23T02:06:58;9.90;81.70
26254;DHT22;53339;51.378;0.094;2023-03-23T02:09:27;9.90;81.90
26254;DHT22;53339;51.378;0.094;2023-03-23T02:11:57;9.90;81.40
26254;DHT22;53339;51.378;0.094;2023-03-23T02:14:27;10.00;81.30
26254;DHT22;53339;51.378;0.094;2023-03-23T02:17:00;10.00;81.40
26254;DHT22;53339;51.378;0.094;2023-03-23T02:36:23;9.90;81.50
26254;DHT22;53339;51.378;0.094;2023-03-23T02:39:09;9.90;81.50
26254;DHT22;53339;51.378;0.094;2023-03-23T02:41:52;9.90;81.50
26254;DHT22;53339;51.378;0.094;2023-03-23T02:44:24;9.90;81.60
26254;DHT22;53339;51.378;0.094;2023-03-23T02:47:00;9.80;81.60
26254;DHT22;53339;51.378;0.094;2023-03-23T02:49:31;9.80;81.60
26254;DHT22;53339;51.378;0.094;2023-03-23T02:52:00;9.80;81.50
26254;DHT22;53339;51.378;0.094;2023-03-23T02:54:29;9.90;81.60
26254;DHT22;53339;51.378;0.094;2023-03-23T02:56:57;9.90;81.60
26254;DHT22;53339;51.378;0.094;2023-03-23T02:59:28;9.90;81.50
26254;DHT22;53339;51.378;0.094;2023-03-23T03:02:05;10.00;81.50
26254;DHT22;53339;51.378;0.094;2023-03-23T03:04:34;10.00;81.40
26254;DHT22;53339;51.378;0.094;2023-03-23T03:10:12;10.10;80.80
26254;DHT22;53339;51.378;0.094;2023-03-23T03:13:11;10.00;80.80
26254;DHT22;53339;51.378;0.094;2023-03-23T03:15:56;10.00;80.80
26254;DHT22;53339;51.378;0.094;2023-03-23T03:18:29;10.00;80.80
26254;DHT22;53339;51.378;0.094;2023-03-23T03:21:02;10.00;80.80
26254;DHT22;53339;51.378;0.094;2023-03-23T03:23:34;10.00;80.90
26254;DHT22;53339;51.378;0.094;2023-03-23T03:26:04;10.00;80.70
26254;DHT22;53339;51.378;0.094;2023-03-23T03:28:46;10.10;80.60
26254;DHT22;53339;51.378;0.094;2023-03-23T03:34:54;10.10;80.70
26254;DHT22;53339;51.378;0.094;2023-03-23T03:37:20;10.10;80.90
26254;DHT22;53339;51.378;0.094;2023-03-23T03:39:49;10.00;81.00
26254;DHT22;53339;51.378;0.094;2023-03-23T03:42:17;9.90;81.10
26254;DHT22;53339;51.378;0.094;2023-03-23T03:44:44;9.90;81.20
26254;DHT22;53339;51.378;0.094;2023-03-23T03:47:12;9.80;81.40
26254;DHT22;53339;51.378;0.094;2023-03-23T03:49:39;9.90;81.50
26254;DHT22;53339;51.378;0.094;2023-03-23T03:52:07;9.80;81.70
26254;DHT22;53339;51.378;0.094;2023-03-23T03:54:39;9.70;81.80
26254;DHT22;53339;51.378;0.094;2023-03-23T03:57:07;9.70;82.00
26254;DHT22;53339;51.378;0.094;2023-03-23T03:59:53;9.70;82.10
26254;DHT22;53339;51.378;0.094;2023-03-23T04:02:42;9.70;82.20
26254;DHT22;53339;51.378;0.094;2023-03-23T04:05:11;9.70;82.30
26254;DHT22;53339;51.378;0.094;2023-03-23T04:07:39;9.70;82.20
26254;DHT22;53339;51.378;0.094;2023-03-23T04:10:10;9.80;82.30
26254;DHT22;53339;51.378;0.094;2023-03-23T04:12:43;9.80;82.20
26254;DHT22;53339;51.378;0.094;2023-03-23T04:15:45;9.80;82.10
26254;DHT22;53339;51.378;0.094;2023-03-23T04:18:17;9.90;82.00
26254;DHT22;53339;51.378;0.094;2023-03-23T04:20:48;9.90;82.00
26254;DHT22;53339;51.378;0.094;2023-03-23T04:23:20;9.80;81.90
26254;DHT22;53339;51.378;0.094;2023-03-23T04:25:50;9.80;82.00
26254;DHT22;53339;51.378;0.094;2023-03-23T04:28:19;9.80;82.00
26254;DHT22;53339;51.378;0.094;2023-03-23T04:31:10;9.90;81.80
26254;DHT22;53339;51.378;0.094;2023-03-23T04:33:44;9.90;81.70
26254;DHT22;53339;51.378;0.094;2023-03-23T04:36:15;9.90;81.70
26254;DHT22;53339;51.378;0.094;2023-03-23T04:38:52;9.90;81.80
26254;DHT22;53339;51.378;0.094;2023-03-23T04:41:24;9.90;81.90
26254;DHT22;53339;51.378;0.094;2023-03-23T04:44:02;9.90;82.10
26254;DHT22;53339;51.378;0.094;2023-03-23T04:46:37;9.90;82.30
26254;DHT22;53339;51.378;0.094;2023-03-23T04:49:09;9.80;82.50
26254;DHT22;53339;51.378;0.094;2023-03-23T04:51:39;9.70;82.60
26254;DHT22;53339;51.378;0.094;2023-03-23T04:54:32;9.70;82.80
26254;DHT22;53339;51.378;0.094;2023-03-23T04:57:01;9.70;83.00
26254;DHT22;53339;51.378;0.094;2023-03-23T04:59:28;9.70;83.20
26254;DHT22;53339;51.378;0.094;2023-03-23T05:02:15;9.60;83.20
26254;DHT22;53339;51.378;0.094;2023-03-23T05:04:46;9.60;83.30
26254;DHT22;53339;51.378;0.094;2023-03-23T05:07:21;9.60;83.40
26254;DHT22;53339;51.378;0.094;2023-03-23T05:09:49;9.60;83.40
26254;DHT22;53339;51.378;0.094;2023-03-23T05:12:20;9.60;83.40
26254;DHT22;53339;51.378;0.094;2023-03-23T05:15:01;9.60;83.50
26254;DHT22;53339;51.378;0.094;2023-03-23T05:17:34;9.60;83.70
26254;DHT22;53339;51.378;0.094;2023-03-23T05:20:11;9.50;83.70
26254;DHT22;53339;51.378;0.094;2023-03-23T05:22:42;9.50;83.70
26254;DHT22;53339;51.378;0.094;2023-03-23T05:25:17;9.60;83.80
26254;DHT22;53339;51.378;0.094;2023-03-23T05:27:59;9.50;83.90
26254;DHT22;53339;51.378;0.094;2023-03-23T05:30:50;9.50;83.90
26254;DHT22;53339;51.378;0.094;2023-03-23T05:33:20;9.40;83.90
26254;DHT22;53339;51.378;0.094;2023-03-23T05:36:11;9.40;84.00
26254;DHT22;53339;51.378;0.094;2023-03-23T05:39:18;9.40;84.20
26254;DHT22;53339;51.378;0.094;2023-03-23T05:42:04;9.40;84.10
26254;DHT22;53339;51.378;0.094;2023-03-23T05:44:44;9.40;84.10
26254;DHT22;53339;51.378;0.094;2023-03-23T05:47:12;9.40;84.10
26254;DHT22;53339;51.378;0.094;2023-03-23T05:49:44;9.40;84.00
26254;DHT22;53339;51.378;0.094;2023-03-23T05:52:16;9.40;84.00
26254;DHT22;53339;51.378;0.094;2023-03-23T05:54:43;9.30;83.90
26254;DHT22;53339;51.378;0.094;2023-03-23T05:57:12;9.30;83.90
26254;DHT22;53339;51.378;0.094;2023-03-23T05:59:45;9.30;83.90
26254;DHT22;53339;51.378;0.094;2023-03-23T06:02:23;9.20;83.80
26254;DHT22;53339;51.378;0.094;2023-03-23T06:04:53;9.20;83.60
26254;DHT22;53339;51.378;0.094;2023-03-23T06:07:31;9.20;83.50
26254;DHT22;53339;51.378;0.094;2023-03-23T06:10:07;9.30;83.50
26254;DHT22;53339;51.378;0.094;2023-03-23T06:12:39;9.20;83.30
26254;DHT22;53339;51.378;0.094;2023-03-23T06:15:36;9.20;83.40
26254;DHT22;53339;51.378;0.094;2023-03-23T06:18:27;9.20;83.40
26254;DHT22;53339;51.378;0.094;2023-03-23T06:21:14;9.20;83.50
26254;DHT22;53339;51.378;0.094;2023-03-23T06:24:01;9.20;83.60
26254;DHT22;53339;51.378;0.094;2023-03-23T06:26:34;9.30;83.70
26254;DHT22;53339;51.378;0.094;2023-03-23T06:29:07;9.30;83.80
26254;DHT22;53339;51.378;0.094;2023-03-23T06:31:49;9.30;83.70
26254;DHT22;53339;51.378;0.094;2023-03-23T06:34:20;9.30;83.80
26254;DHT22;53339;51.378;0.094;2023-03-23T06:37:14;9.30;83.90
26254;DHT22;53339;51.378;0.094;2023-03-23T06:39:57;9.40;84.00
26254;DHT22;53339;51.378;0.094;2023-03-23T06:42:31;9.50;84.00
26254;DHT22;53339;51.378;0.094;2023-03-23T06:45:18;9.60;84.00
26254;DHT22;53339;51.378;0.094;2023-03-23T06:47:53;9.60;83.90
26254;DHT22;53339;51.378;0.094;2023-03-23T06:50:21;9.60;83.80
26254;DHT22;53339;51.378;0.094;2023-03-23T06:52:50;9.60;83.70
26254;DHT22;53339;51.378;0.094;2023-03-23T06:55:21;9.50;83.90
26254;DHT22;53339;51.378;0.094;2023-03-23T06:57:49;9.50;84.00
26254;DHT22;53339;51.378;0.094;2023-03-23T07:00:16;9.50;84.10
26254;DHT22;53339;51.378;0.094;2023-03-23T07:02:45;9.60;84.10
26254;DHT22;53339;51.378;0.094;2023-03-23T07:05:16;9.60;84.10
26254;DHT22;53339;51.378;0.094;2023-03-23T07:07:45;9.60;84.20
26254;DHT22;53339;51.378;0.094;2023-03-23T07:10:35;9.70;84.30
26254;DHT22;53339;51.378;0.094;2023-03-23T07:13:07;9.70;84.30
26254;DHT22;53339;51.378;0.094;2023-03-23T07:15:53;9.70;84.30
26254;DHT22;53339;51.378;0.094;2023-03-23T07:18:26;9.70;84.20
26254;DHT22;53339;51.378;0.094;2023-03-23T07:21:03;9.80;84.10
26254;DHT22;53339;51.378;0.094;2023-03-23T07:23:32;9.80;84.00
26254;DHT22;53339;51.378;0.094;2023-03-23T07:26:09;9.90;84.00
26254;DHT22;53339;51.378;0.094;2023-03-23T07:28:40;9.90;83.90
26254;DHT22;53339;51.378;0.094;2023-03-23T07:31:25;10.00;83.90
26254;DHT22;53339;51.378;0.094;2023-03-23T07:33:53;10.10;83.80
26254;DHT22;53339;51.378;0.094;2023-03-23T07:36:26;10.30;83.80
26254;DHT22;53339;51.378;0.094;2023-03-23T07:38:54;10.40;83.50
26254;DHT22;53339;51.378;0.094;2023-03-23T07:41:22;10.50;83.30
26254;DHT22;53339;51.378;0.094;2023-03-23T07:43:52;10.60;82.90
26254;DHT22;53339;51.378;0.094;2023-03-23T07:46:32;10.70;82.70
26254;DHT22;53339;51.378;0.094;2023-03-23T07:49:09;10.70;82.60
26254;DHT22;53339;51.378;0.094;2023-03-23T07:51:47;10.80;82.20
26254;DHT22;53339;51.378;0.094;2023-03-23T07:54:17;10.90;81.70
26254;DHT22;53339;51.378;0.094;2023-03-23T07:56:45;10.90;81.50
26254;DHT22;53339;51.378;0.094;2023-03-23T07:59:20;11.10;81.00
26254;DHT22;53339;51.378;0.094;2023-03-23T08:01:48;11.10;81.10
26254;DHT22;53339;51.378;0.094;2023-03-23T08:04:33;11.20;80.90
26254;DHT22;53339;51.378;0.094;2023-03-23T08:07:06;11.30;80.60
26254;DHT22;53339;51.378;0.094;2023-03-23T08:09:48;11.30;80.60
26254;DHT22;53339;51.378;0.094;2023-03-23T08:12:42;11.20;80.50
26254;DHT22;53339;51.378;0.094;2023-03-23T08:15:24;11.20;80.60
26254;DHT22;53339;51.378;0.094;2023-03-23T08:18:10;11.20;80.60
26254;DHT22;53339;51.378;0.094;2023-03-23T08:20:59;11.10;80.50
26254;DHT22;53339;51.378;0.094;2023-03-23T08:23:46;11.10;80.60
26254;DHT22;53339;51.378;0.094;2023-03-23T08:26:39;11.10;80.80
26254;DHT22;53339;51.378;0.094;2023-03-23T08:29:23;11.20;80.80
26254;DHT22;53339;51.378;0.094;2023-03-23T08:32:20;11.20;80.40
26254;DHT22;53339;51.378;0.094;2023-03-23T08:35:15;11.30;80.20
26254;DHT22;53339;51.378;0.094;2023-03-23T08:38:15;11.40;79.10
26254;DHT22;53339;51.378;0.094;2023-03-23T08:41:02;11.40;79.30
26254;DHT22;53339;51.378;0.094;2023-03-23T08:43:49;11.40;79.20
26254;DHT22;53339;51.378;0.094;2023-03-23T08:46:30;11.50;79.20
26254;DHT22;53339;51.378;0.094;2023-03-23T08:49:17;11.60;79.40
26254;DHT22;53339;51.378;0.094;2023-03-23T08:52:20;11.70;79.30
26254;DHT22;53339;51.378;0.094;2023-03-23T08:55:11;11.80;79.40
26254;DHT22;53339;51.378;0.094;2023-03-23T08:57:52;11.90;78.30
26254;DHT22;53339;51.378;0.094;2023-03-23T09:00:33;12.10;78.00
26254;DHT22;53339;51.378;0.094;2023-03-23T09:03:07;12.20;77.60
26254;DHT22;53339;51.378;0.094;2023-03-23T09:06:01;12.20;77.30
26254;DHT22;53339;51.378;0.094;2023-03-23T09:08:43;12.20;76.70
26254;DHT22;53339;51.378;0.094;2023-03-23T09:11:12;12.20;77.10
26254;DHT22;53339;51.378;0.094;2023-03-23T09:13:39;12.30;77.10
26254;DHT22;53339;51.378;0.094;2023-03-23T09:16:08;12.40;77.00
26254;DHT22;53339;51.378;0.094;2023-03-23T09:18:35;12.50;77.00
26254;DHT22;53339;51.378;0.094;2023-03-23T09:21:03;12.60;76.90
26254;DHT22;53339;51.378;0.094;2023-03-23T09:23:30;12.60;77.30
26254;DHT22;53339;51.378;0.094;2023-03-23T09:25:59;12.70;76.70
26254;DHT22;53339;51.378;0.094;2023-03-23T09:28:27;12.70;76.30
26254;DHT22;53339;51.378;0.094;2023-03-23T09:30:56;12.80;76.50
26254;DHT22;53339;51.378;0.094;2023-03-23T09:33:24;12.90;75.40
26254;DHT22;53339;51.378;0.094;2023-03-23T09:35:52;13.00;75.20
26254;DHT22;53339;51.378;0.094;2023-03-23T09:38:20;13.10;74.90
26254;DHT22;53339;51.378;0.094;2023-03-23T09:41:04;13.10;74.00
26254;DHT22;53339;51.378;0.094;2023-03-23T09:46:35;13.00;75.00
26254;DHT22;53339;51.378;0.094;2023-03-23T09:49:11;12.90;74.70
26254;DHT22;53339;51.378;0.094;2023-03-23T09:54:46;12.70;75.30
26254;DHT22;53339;51.378;0.094;2023-03-23T09:57:46;12.90;75.30
26254;DHT22;53339;51.378;0.094;2023-03-23T10:00:30;12.90;74.60
26254;DHT22;53339;51.378;0.094;2023-03-23T10:03:16;13.00;75.70
26254;DHT22;53339;51.378;0.094;2023-03-23T10:05:48;12.90;75.30
26254;DHT22;53339;51.378;0.094;2023-03-23T10:08:22;12.60;76.20
26254;DHT22;53339;51.378;0.094;2023-03-23T10:16:40;12.40;78.50
26254;DHT22;53339;51.378;0.094;2023-03-23T10:21:59;12.80;77.40
26254;DHT22;53339;51.378;0.094;2023-03-23T10:25:14;12.90;75.90
26254;DHT22;53339;51.378;0.094;2023-03-23T10:30:34;13.10;74.10
26254;DHT22;53339;51.378;0.094;2023-03-23T10:38:20;13.30;73.00
26254;DHT22;53339;51.378;0.094;2023-03-23T10:40:54;13.10;73.80
26254;DHT22;53339;51.378;0.094;2023-03-23T10:43:24;12.70;75.50
26254;DHT22;53339;51.378;0.094;2023-03-23T10:46:00;12.40;76.80
26254;DHT22;53339;51.378;0.094;2023-03-23T10:48:31;12.10;77.70
26254;DHT22;53339;51.378;0.094;2023-03-23T10:51:03;12.00;78.20
26254;DHT22;53339;51.378;0.094;2023-03-23T10:54:00;12.00;78.60
26254;DHT22;53339;51.378;0.094;2023-03-23T10:56:39;11.90;79.40
26254;DHT22;53339;51.378;0.094;2023-03-23T10:59:20;11.70;80.40
26254;DHT22;53339;51.378;0.094;2023-03-23T11:01:50;11.50;81.60
26254;DHT22;53339;51.378;0.094;2023-03-23T11:04:19;11.20;82.50
26254;DHT22;53339;51.378;0.094;2023-03-23T11:06:49;11.00;83.20
26254;DHT22;53339;51.378;0.094;2023-03-23T11:09:21;10.90;83.60
26254;DHT22;53339;51.378;0.094;2023-03-23T11:11:54;10.80;84.10
26254;DHT22;53339;51.378;0.094;2023-03-23T11:14:34;11.00;84.70
26254;DHT22;53339;51.378;0.094;2023-03-23T11:17:05;11.10;84.60
26254;DHT22;53339;51.378;0.094;2023-03-23T11:19:47;11.20;84.30
26254;DHT22;53339;51.378;0.094;2023-03-23T11:22:31;11.20;84.30
26254;DHT22;53339;51.378;0.094;2023-03-23T11:25:04;11.30;83.80
26254;DHT22;53339;51.378;0.094;2023-03-23T11:27:33;11.40;83.80
26254;DHT22;53339;51.378;0.094;2023-03-23T11:30:23;11.70;83.80
26254;DHT22;53339;51.378;0.094;2023-03-23T11:32:51;11.90;83.50
26254;DHT22;53339;51.378;0.094;2023-03-23T11:35:26;12.00;81.20
26254;DHT22;53339;51.378;0.094;2023-03-23T11:37:55;12.20;80.10
26254;DHT22;53339;51.378;0.094;2023-03-23T11:40:29;12.30;79.20
26254;DHT22;53339;51.378;0.094;2023-03-23T11:43:06;12.60;80.00
26254;DHT22;53339;51.378;0.094;2023-03-23T11:45:36;12.80;78.60
26254;DHT22;53339;51.378;0.094;2023-03-23T11:48:15;12.80;77.50
26254;DHT22;53339;51.378;0.094;2023-03-23T11:56:24;12.90;78.70
26254;DHT22;53339;51.378;0.094;2023-03-23T11:58:56;13.10;78.90
26254;DHT22;53339;51.378;0.094;2023-03-23T12:02:05;13.20;78.50
26254;DHT22;53339;51.378;0.094;2023-03-23T12:07:43;13.30;77.40
26254;DHT22;53339;51.378;0.094;2023-03-23T12:22:34;13.80;76.40
26254;DHT22;53339;51.378;0.094;2023-03-23T12:24:37;13.80;75.90
26254;DHT22;53339;51.378;0.094;2023-03-23T12:27:27;13.80;75.50
26254;DHT22;53339;51.378;0.094;2023-03-23T12:41:12;14.40;73.70
26254;DHT22;53339;51.378;0.094;2023-03-23T12:43:50;14.60;73.50
26254;DHT22;53339;51.378;0.094;2023-03-23T12:46:32;14.70;71.10
26254;DHT22;53339;51.378;0.094;2023-03-23T12:52:11;14.90;70.20
26254;DHT22;53339;51.378;0.094;2023-03-23T12:54:48;15.00;70.50
26254;DHT22;53339;51.378;0.094;2023-03-23T13:02:54;15.10;69.10
26254;DHT22;53339;51.378;0.094;2023-03-23T13:05:38;15.20;66.90
26254;DHT22;53339;51.378;0.094;2023-03-23T13:08:10;15.10;67.50
26254;DHT22;53339;51.378;0.094;2023-03-23T13:10:46;15.10;68.20
26254;DHT22;53339;51.378;0.094;2023-03-23T13:13:26;15.00;66.60
26254;DHT22;53339;51.378;0.094;2023-03-23T13:16:06;14.80;68.00
26254;DHT22;53339;51.378;0.094;2023-03-23T13:21:41;14.70;68.40
26254;DHT22;53339;51.378;0.094;2023-03-23T13:24:15;14.70;67.00
26254;DHT22;53339;51.378;0.094;2023-03-23T13:26:49;14.70;67.10
26254;DHT22;53339;51.378;0.094;2023-03-23T13:29:21;14.70;67.00
26254;DHT22;53339;51.378;0.094;2023-03-23T13:31:51;14.70;67.70
26254;DHT22;53339;51.378;0.094;2023-03-23T13:34:24;14.80;66.90
26254;DHT22;53339;51.378;0.094;2023-03-23T13:37:05;14.90;67.20
26254;DHT22;53339;51.378;0.094;2023-03-23T13:39:38;15.10;67.60
26254;DHT22;53339;51.378;0.094;2023-03-23T13:47:25;15.40;65.30
26254;DHT22;53339;51.378;0.094;2023-03-23T13:50:24;15.50;64.30
26254;DHT22;53339;51.378;0.094;2023-03-23T13:52:57;15.50;65.40
26254;DHT22;53339;51.378;0.094;2023-03-23T14:11:22;15.90;63.10
26254;DHT22;53339;51.378;0.094;2023-03-23T14:14:05;15.90;61.30
26254;DHT22;53339;51.378;0.094;2023-03-23T14:16:49;15.60;62.10
26254;DHT22;53339;51.378;0.094;2023-03-23T14:19:25;15.20;62.50
26254;DHT22;53339;51.378;0.094;2023-03-23T14:21:58;15.00;64.10
26254;DHT22;53339;51.378;0.094;2023-03-23T14:24:28;14.70;65.40
26254;DHT22;53339;51.378;0.094;2023-03-23T14:27:23;14.60;65.20
26254;DHT22;53339;51.378;0.094;2023-03-23T14:30:03;14.50;66.80
26254;DHT22;53339;51.378;0.094;2023-03-23T14:32:32;14.30;67.60
26254;DHT22;53339;51.378;0.094;2023-03-23T14:35:29;14.20;68.70
26254;DHT22;53339;51.378;0.094;2023-03-23T14:37:56;14.20;70.00
26254;DHT22;53339;51.378;0.094;2023-03-23T14:40:27;14.00;70.50
26254;DHT22;53339;51.378;0.094;2023-03-23T14:42:57;14.00;71.10
26254;DHT22;53339;51.378;0.094;2023-03-23T14:45:25;13.90;71.80
26254;DHT22;53339;51.378;0.094;2023-03-23T14:47:58;13.90;71.00
26254;DHT22;53339;51.378;0.094;2023-03-23T14:55:41;13.80;71.90
26254;DHT22;53339;51.378;0.094;2023-03-23T14:58:09;13.70;72.80
26254;DHT22;53339;51.378;0.094;2023-03-23T15:00:43;13.50;73.70
26254;DHT22;53339;51.378;0.094;2023-03-23T15:03:17;13.30;74.40
26254;DHT22;53339;51.378;0.094;2023-03-23T15:05:49;13.30;75.00
26254;DHT22;53339;51.378;0.094;2023-03-23T15:08:24;13.20;75.00
26254;DHT22;53339;51.378;0.094;2023-03-23T15:11:13;13.20;75.50
26254;DHT22;53339;51.378;0.094;2023-03-23T15:13:55;13.10;76.50
26254;DHT22;53339;51.378;0.094;2023-03-23T15:16:29;12.90;77.40
26254;DHT22;53339;51.378;0.094;2023-03-23T15:19:04;12.70;78.10
26254;DHT22;53339;51.378;0.094;2023-03-23T15:21:35;12.60;78.50
26254;DHT22;53339;51.378;0.094;2023-03-23T15:24:27;12.60;78.80
26254;DHT22;53339;51.378;0.094;2023-03-23T15:27:27;12.50;78.70
26254;DHT22;53339;51.378;0.094;2023-03-23T15:29:58;12.50;78.60
26254;DHT22;53339;51.378;0.094;2023-03-23T15:32:37;12.60;78.70
26254;DHT22;53339;51.378;0.094;2023-03-23T15:35:17;12.60;78.50
26254;DHT22;53339;51.378;0.094;2023-03-23T15:37:51;12.70;78.40
26254;DHT22;53339;51.378;0.094;2023-03-23T15:40:22;12.70;78.10
26254;DHT22;53339;51.378;0.094;2023-03-23T15:43:18;12.70;78.20
26254;DHT22;53339;51.378;0.094;2023-03-23T15:45:58;12.60;78.40
26254;DHT22;53339;51.378;0.094;2023-03-23T15:51:27;12.20;80.20
26254;DHT22;53339;51.378;0.094;2023-03-23T15:53:56;12.00;81.00
26254;DHT22;53339;51.378;0.094;2023-03-23T15:56:23;11.80;81.60
26254;DHT22;53339;51.378;0.094;2023-03-23T15:58:52;11.70;82.10
26254;DHT22;53339;51.378;0.094;2023-03-23T16:01:25;11.60;82.50
26254;DHT22;53339;51.378;0.094;2023-03-23T16:04:06;11.60;82.90
26254;DHT22;53339;51.378;0.094;2023-03-23T16:06:36;11.50;83.20
26254;DHT22;53339;51.378;0.094;2023-03-23T16:09:05;11.40;83.30
26254;DHT22;53339;51.378;0.094;2023-03-23T16:11:33;11.40;83.60
26254;DHT22;53339;51.378;0.094;2023-03-23T16:14:02;11.40;83.80
26254;DHT22;53339;51.378;0.094;2023-03-23T16:16:41;11.40;84.20
26254;DHT22;53339;51.378;0.094;2023-03-23T16:19:13;11.30;84.40
26254;DHT22;53339;51.378;0.094;2023-03-23T16:21:42;11.30;84.70
26254;DHT22;53339;51.378;0.094;2023-03-23T16:24:10;11.20;85.00
26254;DHT22;53339;51.378;0.094;2023-03-23T16:26:39;11.20;85.20
26254;DHT22;53339;51.378;0.094;2023-03-23T16:29:11;11.20;85.40
26254;DHT22;53339;51.378;0.094;2023-03-23T16:31:51;11.20;85.60
26254;DHT22;53339;51.378;0.094;2023-03-23T16:34:20;11.20;85.70
26254;DHT22;53339;51.378;0.094;2023-03-23T16:36:54;11.20;85.90
26254;DHT22;53339;51.378;0.094;2023-03-23T16:39:23;11.20;86.00
26254;DHT22;53339;51.378;0.094;2023-03-23T16:41:52;11.20;86.20
26254;DHT22;53339;51.378;0.094;2023-03-23T16:44:20;11.20;86.30
26254;DHT22;53339;51.378;0.094;2023-03-23T16:46:51;11.20;86.40
26254;DHT22;53339;51.378;0.094;2023-03-23T16:49:19;11.20;86.50
26254;DHT22;53339;51.378;0.094;2023-03-23T16:51:47;11.20;86.60
26254;DHT22;53339;51.378;0.094;2023-03-23T16:54:15;11.20;86.70
26254;DHT22;53339;51.378;0.094;2023-03-23T16:56:44;11.20;86.80
26254;DHT22;53339;51.378;0.094;2023-03-23T16:59:13;11.20;86.90
26254;DHT22;53339;51.378;0.094;2023-03-23T17:01:42;11.10;87.00
26254;DHT22;53339;51.378;0.094;2023-03-23T17:04:10;11.10;87.00
26254;DHT22;53339;51.378;0.094;2023-03-23T17:06:38;11.10;87.00
26254;DHT22;53339;51.378;0.094;2023-03-23T17:09:06;11.10;86.90
26254;DHT22;53339;51.378;0.094;2023-03-23T17:11:34;11.10;86.90
26254;DHT22;53339;51.378;0.094;2023-03-23T17:14:03;11.00;86.90
26254;DHT22;53339;51.378;0.094;2023-03-23T17:16:34;11.00;86.90
26254;DHT22;53339;51.378;0.094;2023-03-23T17:19:03;10.90;86.90
26254;DHT22;53339;51.378;0.094;2023-03-23T17:21:31;10.90;87.00
26254;DHT22;53339;51.378;0.094;2023-03-23T17:24:01;10.90;87.00
26254;DHT22;53339;51.378;0.094;2023-03-23T17:26:30;10.90;87.00
26254;DHT22;53339;51.378;0.094;2023-03-23T17:28:59;10.80;87.10
26254;DHT22;53339;51.378;0.094;2023-03-23T17:31:27;10.80;87.10
26254;DHT22;53339;51.378;0.094;2023-03-23T17:33:56;10.80;87.20
26254;DHT22;53339;51.378;0.094;2023-03-23T17:36:27;10.80;87.20
26254;DHT22;53339;51.378;0.094;2023-03-23T17:38:55;10.80;87.30
26254;DHT22;53339;51.378;0.094;2023-03-23T17:41:26;10.70;87.30
26254;DHT22;53339;51.378;0.094;2023-03-23T17:43:54;10.70;87.40
26254;DHT22;53339;51.378;0.094;2023-03-23T17:46:26;10.70;87.40
26254;DHT22;53339;51.378;0.094;2023-03-23T17:48:55;10.70;87.50
26254;DHT22;53339;51.378;0.094;2023-03-23T17:51:27;10.70;87.60
26254;DHT22;53339;51.378;0.094;2023-03-23T17:53:55;10.70;87.60
26254;DHT22;53339;51.378;0.094;2023-03-23T17:56:27;10.70;87.60
26254;DHT22;53339;51.378;0.094;2023-03-23T17:58:56;10.70;87.60
26254;DHT22;53339;51.378;0.094;2023-03-23T18:01:28;10.70;87.60
26254;DHT22;53339;51.378;0.094;2023-03-23T18:03:57;10.70;87.60
26254;DHT22;53339;51.378;0.094;2023-03-23T18:06:26;10.70;87.60
26254;DHT22;53339;51.378;0.094;2023-03-23T18:08:55;10.70;87.70
26254;DHT22;53339;51.378;0.094;2023-03-23T18:11:24;10.70;87.80
26254;DHT22;53339;51.378;0.094;2023-03-23T18:13:53;10.70;87.70
26254;DHT22;53339;51.378;0.094;2023-03-23T18:16:22;10.70;88.00
26254;DHT22;53339;51.378;0.094;2023-03-23T18:18:54;10.70;88.10
26254;DHT22;53339;51.378;0.094;2023-03-23T18:21:23;10.70;88.20